createdAt,value
2023-10-06T00:02:32.306Z,86592.13
2023-10-06T00:05:00.068Z,86599.00
2023-10-06T00:07:27.870Z,86599.00
2023-10-06T00:09:56.220Z,86541.72
2023-10-06T00:12:27.650Z,86593.41
2023-10-06T00:14:57.567Z,86570.78
2023-10-06T00:17:29.721Z,86522.44
2023-10-06T00:20:01.517Z,86538.38
2023-10-06T00:22:30.512Z,86554.97
2023-10-06T00:25:01.011Z,86582.59
2023-10-06T00:27:32.021Z,86546.75
2023-10-06T00:30:00.177Z,86577.19
2023-10-06T00:32:28.758Z,86542.69
2023-10-06T00:35:19.189Z,86601.28
2023-10-06T00:37:46.440Z,86606.31
2023-10-06T00:40:26.086Z,86593.78
2023-10-06T00:42:58.445Z,86575.84
2023-10-06T00:45:27.608Z,86601.50
2023-10-06T00:47:55.539Z,86501.38
2023-10-06T00:50:26.501Z,86600.06
2023-10-06T00:52:57.322Z,86597.28
2023-10-06T00:55:24.786Z,86580.03
2023-10-06T00:57:54.788Z,86595.34
2023-10-06T01:00:22.943Z,86594.72
2023-10-06T01:02:51.498Z,86579.41
2023-10-06T01:05:22.756Z,86533.06
2023-10-06T01:07:52.963Z,86571.75
2023-10-06T01:10:29.319Z,86571.13
2023-10-06T01:12:58.774Z,86549.88
2023-10-06T01:15:30.696Z,86564.25
2023-10-06T01:18:00.222Z,86558.00
2023-10-06T01:20:43.020Z,86509.69
2023-10-06T01:23:20.933Z,86553.81
2023-10-06T01:25:48.868Z,86523.53
2023-10-06T01:28:16.078Z,86514.56
2023-10-06T01:30:43.421Z,86564.88
2023-10-06T01:33:12.397Z,86348.22
2023-10-06T01:35:44.053Z,86566.28
2023-10-06T01:38:21.376Z,86516.56
2023-10-06T01:40:52.218Z,86535.84
2023-10-06T01:43:24.149Z,86557.94
2023-10-06T01:45:52.910Z,86545.56
2023-10-06T01:48:22.850Z,86540.75
2023-10-06T01:50:50.425Z,86553.19
2023-10-06T01:53:21.537Z,86569.75
2023-10-06T01:55:57.978Z,86521.41
2023-10-06T01:58:25.277Z,86544.16
2023-10-06T02:00:52.499Z,86475.78
2023-10-06T02:03:22.552Z,86563.50
2023-10-06T02:05:50.176Z,86502.69
2023-10-06T02:08:23.380Z,86553.09
2023-10-06T02:10:51.953Z,86513.84
2023-10-06T02:13:25.595Z,86529.03
2023-10-06T02:16:04.771Z,86560.78
2023-10-06T02:18:38.481Z,86527.03
2023-10-06T02:21:10.876Z,86562.88
2023-10-06T02:23:42.836Z,86531.81
2023-10-06T02:26:13.718Z,86567.06
2023-10-06T02:28:45.185Z,86568.44
2023-10-06T02:31:13.104Z,86560.81
2023-10-06T02:33:48.016Z,86483.50
2023-10-06T02:36:24.255Z,86561.50
2023-10-06T02:38:52.798Z,86499.44
2023-10-06T02:41:22.226Z,86561.63
2023-10-06T02:43:51.341Z,86508.34
2023-10-06T02:46:24.176Z,86555.38
2023-10-06T02:48:52.096Z,86560.19
2023-10-06T02:51:22.320Z,86560.88
2023-10-06T02:53:52.763Z,86537.44
2023-10-06T02:56:22.479Z,86504.28
2023-10-06T02:58:52.266Z,86524.28
2023-10-06T03:01:20.136Z,86558.25
2023-10-06T03:03:51.853Z,86555.44
2023-10-06T03:06:21.236Z,86507.06
2023-10-06T03:08:49.169Z,86544.34
2023-10-06T03:11:26.323Z,86529.13
2023-10-06T03:13:56.456Z,86504.28
2023-10-06T03:16:26.944Z,86508.41
2023-10-06T03:18:55.722Z,86522.28
2023-10-06T03:21:24.041Z,86511.88
2023-10-06T03:23:59.130Z,86551.25
2023-10-06T03:26:26.790Z,86553.94
2023-10-06T03:28:54.752Z,86516.66
2023-10-06T03:31:22.959Z,86556.78
2023-10-06T03:33:56.401Z,86556.81
2023-10-06T03:36:39.607Z,86541.63
2023-10-06T03:39:13.065Z,86551.25
2023-10-06T03:41:45.532Z,86544.38
2023-10-06T03:44:13.779Z,86554.09
2023-10-06T03:46:43.582Z,86553.38
2023-10-06T03:49:14.794Z,86549.91
2023-10-06T03:51:42.346Z,86489.16
2023-10-06T03:54:10.755Z,86500.97
2023-10-06T03:56:38.182Z,86510.59
2023-10-06T03:59:13.965Z,86562.44
2023-10-06T04:01:43.819Z,86509.91
2023-10-06T04:04:11.309Z,86543.06
2023-10-06T04:06:38.936Z,86552.72
2023-10-06T04:09:06.814Z,86556.19
2023-10-06T04:11:35.555Z,86542.38
2023-10-06T04:14:03.069Z,86515.44
2023-10-06T04:16:31.996Z,86500.34
2023-10-06T04:18:59.241Z,86571.47
2023-10-06T04:21:26.541Z,86551.38
2023-10-06T04:23:54.223Z,86516.88
2023-10-06T04:26:24.103Z,86483.81
2023-10-06T04:28:51.193Z,86544.59
2023-10-06T04:31:18.322Z,86565.97
2023-10-06T04:33:45.900Z,86527.28
2023-10-06T04:36:22.215Z,86510.69
2023-10-06T04:38:49.600Z,86568.06
2023-10-06T04:41:16.794Z,86484.47
2023-10-06T04:43:46.343Z,86518.38
2023-10-06T04:46:15.765Z,86559.75
2023-10-06T04:48:43.306Z,86572.19
2023-10-06T04:51:10.964Z,86549.41
2023-10-06T04:53:39.638Z,86534.91
2023-10-06T04:56:10.057Z,86550.78
2023-10-06T04:58:40.366Z,86562.53
2023-10-06T05:01:09.776Z,86580.50
2023-10-06T05:03:47.806Z,86576.34
2023-10-06T05:06:19.818Z,86554.25
2023-10-06T05:08:51.034Z,86588.81
2023-10-06T05:11:20.160Z,86578.38
2023-10-06T05:13:54.314Z,86569.41
2023-10-06T05:16:24.911Z,86588.78
2023-10-06T05:18:53.008Z,86585.31
2023-10-06T05:21:21.799Z,86588.03
2023-10-06T05:23:49.169Z,86594.25
2023-10-06T05:26:17.494Z,86592.84
2023-10-06T05:28:45.782Z,86595.66
2023-10-06T05:31:13.855Z,86596.94
2023-10-06T05:33:42.325Z,86601.06
2023-10-06T05:36:19.320Z,86599.66
2023-10-06T05:38:48.052Z,86609.31
2023-10-06T05:41:16.545Z,86613.44
2023-10-06T05:43:44.967Z,86587.88
2023-10-06T05:46:12.964Z,86586.38
2023-10-06T05:48:41.612Z,86575.97
2023-10-06T05:51:12.762Z,86615.94
2023-10-06T05:53:45.336Z,86615.88
2023-10-06T05:56:13.777Z,86591.00
2023-10-06T05:58:42.569Z,86577.16
2023-10-06T06:01:20.170Z,86566.75
2023-10-06T06:03:48.553Z,86630.94
2023-10-06T06:06:17.743Z,86621.22
2023-10-06T06:08:48.956Z,86636.41
2023-10-06T06:11:17.566Z,86605.28
2023-10-06T06:13:48.256Z,86618.31
2023-10-06T06:16:20.446Z,86607.22
2023-10-06T06:18:49.687Z,86591.34
2023-10-06T06:21:17.934Z,86617.50
2023-10-06T06:23:47.823Z,86568.41
2023-10-06T06:26:18.562Z,86622.31
2023-10-06T06:28:46.311Z,86635.31
2023-10-06T06:31:21.164Z,86619.44
2023-10-06T06:33:58.523Z,86638.69
2023-10-06T06:36:27.184Z,86608.31
2023-10-06T06:38:56.015Z,86606.94
2023-10-06T06:41:23.396Z,86575.09
2023-10-06T06:43:50.963Z,86648.22
2023-10-06T06:46:18.643Z,86652.97
2023-10-06T06:48:48.178Z,86650.13
2023-10-06T06:51:15.477Z,86652.91
2023-10-06T06:53:42.641Z,86649.22
2023-10-06T06:56:12.277Z,86638.22
2023-10-06T06:58:40.434Z,86649.13
2023-10-06T07:01:16.356Z,86651.81
2023-10-06T07:03:43.912Z,86654.50
2023-10-06T07:06:17.797Z,86621.19
2023-10-06T07:08:48.523Z,86636.13
2023-10-06T07:11:17.169Z,86640.16
2023-10-06T07:13:46.989Z,86655.78
2023-10-06T07:16:16.146Z,86642.50
2023-10-06T07:18:43.680Z,86658.38
2023-10-06T07:21:12.515Z,86660.31
2023-10-06T07:23:39.918Z,86639.41
2023-10-06T07:26:14.825Z,86668.34
2023-10-06T07:28:42.290Z,86644.59
2023-10-06T07:31:15.018Z,86665.78
2023-10-06T07:33:45.730Z,86667.75
2023-10-06T07:36:19.608Z,86647.59
2023-10-06T07:38:49.870Z,86664.47
2023-10-06T07:41:27.080Z,86628.44
2023-10-06T07:43:54.746Z,86660.53
2023-10-06T07:46:22.113Z,86663.78
2023-10-06T07:48:51.988Z,86659.38
2023-10-06T07:51:20.576Z,86638.56
2023-10-06T07:53:47.847Z,86658.09
2023-10-06T07:56:16.057Z,86635.91
2023-10-06T07:58:43.392Z,86650.06
2023-10-06T08:01:12.571Z,86656.53
2023-10-06T08:03:41.085Z,86625.94
2023-10-06T08:06:12.348Z,86650.22
2023-10-06T08:08:39.774Z,86643.94
2023-10-06T08:11:07.890Z,86655.19
2023-10-06T08:13:35.843Z,86648.03
2023-10-06T08:16:04.057Z,86662.78
2023-10-06T08:18:31.622Z,86658.22
2023-10-06T08:21:02.353Z,86623.44
2023-10-06T08:23:30.904Z,86658.03
2023-10-06T08:26:00.977Z,86645.94
2023-10-06T08:28:28.935Z,86650.63
2023-10-06T08:30:56.257Z,86654.84
2023-10-06T08:33:27.481Z,86607.94
2023-10-06T08:35:59.059Z,86641.63
2023-10-06T08:38:26.795Z,86664.75
2023-10-06T08:41:02.152Z,86667.25
2023-10-06T08:43:29.743Z,86598.94
2023-10-06T08:46:01.516Z,86652.84
2023-10-06T08:48:37.503Z,86634.56
2023-10-06T08:51:09.181Z,86661.16
2023-10-06T08:53:42.042Z,86654.63
2023-10-06T08:56:09.485Z,86586.06
2023-10-06T08:58:37.133Z,86656.47
2023-10-06T09:01:14.657Z,86605.59
2023-10-06T09:03:41.932Z,86655.16
2023-10-06T09:06:13.356Z,86603.97
2023-10-06T09:08:42.951Z,86588.13
2023-10-06T09:11:14.043Z,86589.84
2023-10-06T09:13:41.458Z,86647.66
2023-10-06T09:16:08.809Z,86641.19
2023-10-06T09:18:40.452Z,86645.28
2023-10-06T09:21:22.457Z,86634.50
2023-10-06T09:23:50.818Z,86651.69
2023-10-06T09:26:38.614Z,86652.44
2023-10-06T09:29:05.955Z,86658.06
2023-10-06T09:31:46.330Z,86611.31
2023-10-06T09:34:24.361Z,86655.19
2023-10-06T09:36:53.103Z,86646.81
2023-10-06T09:39:28.126Z,86575.59
2023-10-06T09:41:55.911Z,86596.00
2023-10-06T09:44:24.445Z,86644.78
2023-10-06T09:46:56.036Z,86651.06
2023-10-06T09:49:23.646Z,86636.69
2023-10-06T09:51:54.008Z,86641.47
2023-10-06T09:54:22.527Z,86627.50
2023-10-06T09:56:50.656Z,86632.50
2023-10-06T09:59:18.743Z,86643.50
2023-10-06T10:01:49.494Z,86608.81
2023-10-06T10:04:18.137Z,86606.63
2023-10-06T10:06:46.285Z,86647.06
2023-10-06T10:09:18.425Z,86634.88
2023-10-06T10:11:54.430Z,86605.91
2023-10-06T10:14:50.668Z,86637.03
2023-10-06T10:17:20.064Z,86648.13
2023-10-06T10:19:49.231Z,86567.44
2023-10-06T10:22:17.666Z,86635.50
2023-10-06T10:27:23.753Z,86642.88
2023-10-06T10:29:51.252Z,86571.19
2023-10-06T10:32:19.570Z,86661.72
2023-10-06T10:35:18.505Z,86651.13
2023-10-06T10:38:08.065Z,86662.53
2023-10-06T10:40:49.157Z,86652.69
2023-10-06T10:43:17.788Z,86608.81
2023-10-06T10:45:45.539Z,86650.69
2023-10-06T10:48:17.039Z,86662.28
2023-10-06T10:51:07.270Z,86653.56
2023-10-06T10:53:39.566Z,86653.78
2023-10-06T10:56:08.324Z,86650.06
2023-10-06T10:58:49.623Z,86662.34
2023-10-06T11:01:31.073Z,86655.38
2023-10-06T11:04:22.927Z,86645.97
2023-10-06T11:06:51.864Z,86651.69
2023-10-06T11:09:27.748Z,86637.81
2023-10-06T11:12:23.162Z,86662.19
2023-10-06T11:14:52.765Z,86587.34
2023-10-06T11:17:24.598Z,86651.19
2023-10-06T11:20:24.158Z,86657.34
2023-10-06T11:22:55.910Z,86658.84
2023-10-06T11:25:30.027Z,86654.69
2023-10-06T11:28:10.337Z,86650.41
2023-10-06T11:30:40.312Z,86628.03
2023-10-06T11:33:10.244Z,86621.00
2023-10-06T11:35:42.218Z,86649.81
2023-10-06T11:38:13.609Z,86650.41
2023-10-06T11:40:42.421Z,86589.84
2023-10-06T11:43:14.808Z,86613.22
2023-10-06T11:45:43.917Z,86610.28
2023-10-06T11:48:25.879Z,86631.22
2023-10-06T11:51:14.075Z,86629.38
2023-10-06T11:53:41.925Z,86617.56
2023-10-06T11:56:17.058Z,86622.47
2023-10-06T11:58:46.318Z,86621.00
2023-10-06T12:01:38.984Z,86565.94
2023-10-06T12:04:24.325Z,86602.25
2023-10-06T12:06:52.693Z,86615.41
2023-10-06T12:09:31.071Z,86612.66
2023-10-06T12:12:01.365Z,86615.53
2023-10-06T12:14:29.562Z,86616.88
2023-10-06T12:16:56.899Z,86548.19
2023-10-06T12:19:25.143Z,86619.06
2023-10-06T12:21:53.341Z,86619.69
2023-10-06T12:24:23.833Z,86537.16
2023-10-06T12:26:51.347Z,86618.22
2023-10-06T12:29:18.851Z,86614.16
2023-10-06T12:31:47.475Z,86598.81
2023-10-06T12:34:17.287Z,86607.78
2023-10-06T12:36:53.157Z,86536.97
2023-10-06T12:39:38.286Z,86601.31
2023-10-06T12:42:06.510Z,86542.22
2023-10-06T12:44:36.136Z,86581.56
2023-10-06T12:47:05.389Z,86599.97
2023-10-06T12:49:33.010Z,86596.34
2023-10-06T12:52:00.789Z,86589.97
2023-10-06T12:54:27.949Z,86543.41
2023-10-06T12:56:55.128Z,86504.13
2023-10-06T12:59:22.451Z,86576.19
2023-10-06T13:01:50.566Z,86603.03
2023-10-06T13:04:19.348Z,86595.31
2023-10-06T13:06:48.919Z,86490.72
2023-10-06T13:09:22.026Z,86518.19
2023-10-06T13:11:49.584Z,86584.09
2023-10-06T13:14:17.284Z,86596.69
2023-10-06T13:16:44.720Z,86582.84
2023-10-06T13:19:12.086Z,86600.69
2023-10-06T13:21:39.239Z,86595.09
2023-10-06T13:24:09.352Z,86584.69
2023-10-06T13:26:44.319Z,86588.16
2023-10-06T13:29:12.240Z,86580.41
2023-10-06T13:31:40.716Z,86584.56
2023-10-06T13:34:09.364Z,86601.84
2023-10-06T13:36:37.001Z,86595.09
2023-10-06T13:39:10.421Z,86577.25
2023-10-06T13:41:43.589Z,86605.34
2023-10-06T13:44:11.183Z,86575.19
2023-10-06T13:46:38.653Z,86574.53
2023-10-06T13:49:05.915Z,86606.06
2023-10-06T13:51:34.325Z,86608.88
2023-10-06T13:54:04.527Z,86603.31
2023-10-06T13:56:35.688Z,86594.41
2023-10-06T13:59:05.523Z,86565.44
2023-10-06T14:01:35.816Z,86568.78
2023-10-06T14:04:04.779Z,86536.00
2023-10-06T14:06:32.001Z,86594.28
2023-10-06T14:09:00.372Z,86601.84
2023-10-06T14:11:29.288Z,86590.88
2023-10-06T14:13:58.647Z,86599.59
2023-10-06T14:16:26.675Z,86567.75
2023-10-06T14:18:54.807Z,86610.25
2023-10-06T14:21:21.973Z,86589.69
2023-10-06T14:23:50.840Z,86584.91
2023-10-06T14:26:20.204Z,86580.56
2023-10-06T14:28:47.604Z,86582.66
2023-10-06T14:31:21.357Z,86602.59
2023-10-06T14:34:11.485Z,86598.47
2023-10-06T14:36:39.505Z,86551.84
2023-10-06T14:39:25.445Z,86597.94
2023-10-06T14:42:01.816Z,86610.41
2023-10-06T14:44:47.738Z,86614.63
2023-10-06T14:47:15.075Z,86616.69
2023-10-06T14:49:44.907Z,86603.59
2023-10-06T14:52:12.956Z,86611.91
2023-10-06T14:54:40.130Z,86618.06
2023-10-06T14:57:07.281Z,86582.59
2023-10-06T14:59:35.316Z,86617.56
2023-10-06T15:02:08.539Z,86615.44
2023-10-06T15:04:36.947Z,86614.22
2023-10-06T15:07:04.311Z,86528.53
2023-10-06T15:09:36.287Z,86617.84
2023-10-06T15:12:05.475Z,86618.81
2023-10-06T15:14:35.152Z,86616.38
2023-10-06T15:17:05.281Z,86603.94
2023-10-06T15:19:36.768Z,86595.59
2023-10-06T15:22:04.844Z,86612.78
2023-10-06T15:24:31.981Z,86610.25
2023-10-06T15:26:59.137Z,86588.91
2023-10-06T15:29:29.376Z,86622.81
2023-10-06T15:31:57.255Z,86613.34
2023-10-06T15:34:25.428Z,86592.09
2023-10-06T15:36:52.576Z,86538.63
2023-10-06T15:39:20.228Z,86607.44
2023-10-06T15:41:50.165Z,86597.09
2023-10-06T15:44:19.561Z,86626.16
2023-10-06T15:46:47.873Z,86641.47
2023-10-06T15:49:19.801Z,86644.38
2023-10-06T15:51:48.962Z,86637.66
2023-10-06T15:54:17.392Z,86611.47
2023-10-06T15:56:45.316Z,86645.13
2023-10-06T15:59:16.704Z,86639.06
2023-10-06T16:01:46.022Z,86644.63
2023-10-06T16:04:14.670Z,86623.94
2023-10-06T16:06:44.266Z,86649.13
2023-10-06T16:09:17.206Z,86615.50
2023-10-06T16:11:45.293Z,86620.63
2023-10-06T16:14:17.097Z,86644.59
2023-10-06T16:16:45.976Z,86646.72
2023-10-06T16:19:15.020Z,86648.03
2023-10-06T16:21:43.175Z,86593.75
2023-10-06T16:24:12.929Z,86658.03
2023-10-06T16:26:40.439Z,86655.19
2023-10-06T16:29:09.033Z,86624.41
2023-10-06T16:31:36.710Z,86646.34
2023-10-06T16:34:04.816Z,86655.19
2023-10-06T16:36:32.279Z,86632.50
2023-10-06T16:39:00.651Z,86660.81
2023-10-06T16:41:27.849Z,86614.84
2023-10-06T16:43:57.207Z,86672.22
2023-10-06T16:46:24.902Z,86668.72
2023-10-06T16:48:52.709Z,86668.72
2023-10-06T16:51:21.537Z,86646.78
2023-10-06T16:53:50.035Z,86641.41
2023-10-06T16:56:20.074Z,86676.50
2023-10-06T16:58:47.860Z,86679.31
2023-10-06T17:01:15.722Z,86670.56
2023-10-06T17:03:43.247Z,86680.88
2023-10-06T17:06:15.127Z,86661.84
2023-10-06T17:08:42.438Z,86672.22
2023-10-06T17:11:16.132Z,86695.16
2023-10-06T17:13:43.688Z,86691.03
2023-10-06T17:16:14.641Z,86693.88
2023-10-06T17:18:45.283Z,86667.00
2023-10-06T17:21:14.048Z,86661.66
2023-10-06T17:23:41.424Z,86701.75
2023-10-06T17:26:10.079Z,86701.75
2023-10-06T17:28:37.484Z,86688.66
2023-10-06T17:31:04.909Z,86679.22
2023-10-06T17:33:33.605Z,86688.34
2023-10-06T17:36:02.350Z,86711.03
2023-10-06T17:38:29.592Z,86711.09
2023-10-06T17:41:00.878Z,86660.84
2023-10-06T17:43:28.665Z,86658.25
2023-10-06T17:45:56.823Z,86703.81
2023-10-06T17:48:25.003Z,86710.28
2023-10-06T17:50:52.405Z,86740.75
2023-10-06T17:53:19.768Z,86730.31
2023-10-06T17:55:57.598Z,86729.59
2023-10-06T17:58:24.897Z,86715.34
2023-10-06T18:00:53.114Z,86705.78
2023-10-06T18:03:20.644Z,86741.06
2023-10-06T18:05:49.731Z,86731.31
2023-10-06T18:08:17.912Z,86728.09
2023-10-06T18:10:49.342Z,86739.94
2023-10-06T18:13:18.014Z,86734.44
2023-10-06T18:15:48.447Z,86707.06
2023-10-06T18:18:15.658Z,86712.91
2023-10-06T18:20:44.479Z,86744.88
2023-10-06T18:23:14.417Z,86746.28
2023-10-06T18:25:41.868Z,86725.69
2023-10-06T18:28:09.298Z,86752.06
2023-10-06T18:30:36.470Z,86756.19
2023-10-06T18:33:07.765Z,86750.56
2023-10-06T18:35:37.938Z,86721.59
2023-10-06T18:38:05.231Z,86723.69
2023-10-06T18:40:34.210Z,86720.84
2023-10-06T18:43:02.189Z,86739.41
2023-10-06T18:45:34.324Z,86746.41
2023-10-06T18:48:02.595Z,86749.19
2023-10-06T18:50:31.821Z,86732.66
2023-10-06T18:52:59.142Z,86732.75
2023-10-06T18:55:26.343Z,86750.63
2023-10-06T18:57:55.262Z,86756.25
2023-10-06T19:00:24.299Z,86754.81
2023-10-06T19:02:52.280Z,86743.78
2023-10-06T19:05:19.792Z,86760.44
2023-10-06T19:07:47.264Z,86764.69
2023-10-06T19:10:15.914Z,86762.97
2023-10-06T19:12:46.807Z,86765.06
2023-10-06T19:15:14.316Z,86766.94
2023-10-06T19:17:42.564Z,86727.66
2023-10-06T19:20:10.580Z,86752.41
2023-10-06T19:22:39.484Z,86739.56
2023-10-06T19:25:11.230Z,86738.22
2023-10-06T19:27:39.609Z,86736.91
2023-10-06T19:30:11.284Z,86762.50
2023-10-06T19:32:39.231Z,86740.47
2023-10-06T19:35:10.646Z,86764.03
2023-10-06T19:37:39.203Z,86771.03
2023-10-06T19:40:10.767Z,86773.81
2023-10-06T19:42:41.297Z,86775.19
2023-10-06T19:45:08.984Z,86765.63
2023-10-06T19:47:36.767Z,86765.16
2023-10-06T19:50:13.042Z,86742.41
2023-10-06T19:52:41.240Z,86772.63
2023-10-06T19:55:09.375Z,86775.44
2023-10-06T19:57:37.364Z,86758.88
2023-10-06T20:00:12.498Z,86777.00
2023-10-06T20:02:41.950Z,86772.78
2023-10-06T20:05:11.830Z,86756.19
2023-10-06T20:07:39.077Z,86750.66
2023-10-06T20:10:06.954Z,86779.84
2023-10-06T20:12:34.114Z,86763.31
2023-10-06T20:15:03.822Z,86775.13
2023-10-06T20:17:31.977Z,86780.59
2023-10-06T20:19:59.291Z,86750.97
2023-10-06T20:22:27.542Z,86723.59
2023-10-06T20:24:54.845Z,86776.81
2023-10-06T20:27:22.876Z,86717.91
2023-10-06T20:29:50.190Z,86719.88
2023-10-06T20:32:17.509Z,86751.78
2023-10-06T20:34:45.040Z,86769.06
2023-10-06T20:37:12.230Z,86693.06
2023-10-06T20:39:39.464Z,86676.53
2023-10-06T20:42:06.959Z,86748.97
2023-10-06T20:44:34.292Z,86761.50
2023-10-06T20:47:01.768Z,86750.41
2023-10-06T20:49:29.105Z,86771.84
2023-10-06T20:51:56.491Z,86773.28
2023-10-06T20:54:23.723Z,86743.72
2023-10-06T20:56:52.977Z,86769.16
2023-10-06T20:59:20.205Z,86771.97
2023-10-06T21:01:49.250Z,86719.41
2023-10-06T21:04:16.623Z,86736.00
2023-10-06T21:06:44.158Z,86767.78
2023-10-06T21:09:11.390Z,86691.13
2023-10-06T21:11:41.327Z,86757.47
2023-10-06T21:14:13.687Z,86740.25
2023-10-06T21:16:41.086Z,86705.69
2023-10-06T21:19:08.506Z,86774.03
2023-10-06T21:21:35.758Z,86756.81
2023-10-06T21:24:03.206Z,86743.00
2023-10-06T21:26:30.428Z,86775.44
2023-10-06T21:28:57.666Z,86777.53
2023-10-06T21:31:25.095Z,86773.31
2023-10-06T21:33:52.433Z,86763.69
2023-10-06T21:36:20.489Z,86776.94
2023-10-06T21:38:47.980Z,86776.84
2023-10-06T21:41:15.942Z,86771.94
2023-10-06T21:43:43.357Z,86770.53
2023-10-06T21:46:11.321Z,86770.56
2023-10-06T21:48:38.457Z,86783.06
2023-10-06T21:51:07.741Z,86783.09
2023-10-06T21:53:35.143Z,86696.00
2023-10-06T21:56:13.162Z,86776.06
2023-10-06T21:58:45.370Z,86784.41
2023-10-06T22:01:21.019Z,86742.25
2023-10-06T22:03:49.582Z,86758.16
2023-10-06T22:06:20.752Z,86781.63
2023-10-06T22:08:48.188Z,86778.19
2023-10-06T22:11:16.816Z,86769.13
2023-10-06T22:13:44.128Z,86741.53
2023-10-06T22:16:14.028Z,86774.03
2023-10-06T22:18:42.268Z,86783.69
2023-10-06T22:21:11.361Z,86757.47
2023-10-06T22:23:39.330Z,86778.88
2023-10-06T22:26:06.697Z,86765.78
2023-10-06T22:28:33.979Z,86760.94
2023-10-06T22:31:05.510Z,86769.16
2023-10-06T22:33:33.528Z,86702.22
2023-10-06T22:36:02.106Z,86754.06
2023-10-06T22:38:29.373Z,86733.31
2023-10-06T22:40:57.280Z,86776.81
2023-10-06T22:43:24.694Z,86777.50
2023-10-06T22:45:51.984Z,86698.03
2023-10-06T22:48:19.288Z,86768.38
2023-10-06T22:50:46.564Z,86767.53
2023-10-06T22:53:13.884Z,86765.47
2023-10-06T22:55:41.340Z,86747.69
2023-10-06T22:58:08.703Z,86680.75
2023-10-06T23:00:36.403Z,86770.50
2023-10-06T23:03:03.915Z,86706.94
2023-10-06T23:05:31.332Z,86752.59
2023-10-06T23:07:58.522Z,86741.72
2023-10-06T23:10:27.911Z,86660.31
2023-10-06T23:12:56.961Z,86761.91
2023-10-06T23:15:24.318Z,86775.06
2023-10-06T23:17:51.774Z,86780.66
2023-10-06T23:20:22.091Z,86740.53
2023-10-06T23:23:00.406Z,86722.59
2023-10-06T23:25:37.965Z,86775.13
2023-10-06T23:28:08.400Z,86783.47
2023-10-06T23:30:38.332Z,86715.75
2023-10-06T23:33:06.138Z,86742.06
2023-10-06T23:35:33.525Z,86758.75
2023-10-06T23:38:01.373Z,86782.91
2023-10-06T23:40:34.876Z,86757.38
2023-10-06T23:43:02.022Z,86758.03
2023-10-06T23:45:32.548Z,86753.84
2023-10-06T23:48:01.013Z,86736.50
2023-10-06T23:50:31.671Z,86722.00
2023-10-06T23:53:03.568Z,86720.75
2023-10-06T23:55:33.240Z,86749.66
2023-10-06T23:58:01.509Z,86748.19
